Dripping Springs' Hourly Summary for Friday, May 11, 2018
Hour Temp
(f)
RH
(%)
Solar Rad.
(MJ/m2)
Rainfall
(in)
Wind
(mph)
5/11/2018 12:00 AM 72 83 0 0 7.94
5/11/2018 1:00 AM 70 89 0 0 7.16
5/11/2018 2:00 AM 69 90 0 0 7.01
5/11/2018 3:00 AM 69 90 0 0 7.83
5/11/2018 4:00 AM 69 88 0 0 7.83
5/11/2018 5:00 AM 68 89 0 0 6.38
5/11/2018 6:00 AM 68 89 0.01 0 5.38
5/11/2018 7:00 AM 68 89 0.3 0 5.26
5/11/2018 8:00 AM 71 86 1.21 0 8.13
5/11/2018 9:00 AM 73 76 1.21 0 9.97
5/11/2018 10:00 AM 75 67 2.3 0 11.24
5/11/2018 11:00 AM 78 57 2.73 0 11.24
5/11/2018 12:00 PM 80 53 3.21 0 10.75
5/11/2018 1:00 PM 82 47 3.35 0 10.27
5/11/2018 2:00 PM 83 44 3.35 0 9.96
5/11/2018 3:00 PM 84 40 3.16 0 9.36
5/11/2018 4:00 PM 85 38 2.5 0 8.58
5/11/2018 5:00 PM 86 38 2.03 0 8.71
5/11/2018 6:00 PM 86 39 1.83 0 8.71
5/11/2018 7:00 PM 85 41 0.41 0 7.98
5/11/2018 8:00 PM 83 47 0.29 0 7.67
5/11/2018 9:00 PM 80 57 0.01 0 8.24
5/11/2018 10:00 PM 77 68 0 0 8.72
5/11/2018 11:00 PM 75 78 0 0 8.72
Data Summary 76 65 27.90 0.00 8.46